Jackson, WY

3:17 AM MDT on August 30, 2014 (GMT -0600)
RAWS GRAND TETON WY US | Change Station
CLOSE
Current Station
Personal Weather Station
Location: Moose, WY
Elevation: 6729 ft
Nearby Weather Stations

Elev 6729 ft 43.71 °N, 110.71 °W | Updated 1 hour ago

Mostly Cloudy
Mostly Cloudy
47 °F
Feels Like 47 °F
N
2
Wind Variable Wind from NW
Gusts 4.0 mph

Today
High -- | Low -- °F
--% Chance of Precip.
Yesterday
High -- | Low -- °F
Precip. -- in
6:44 AM 8:01 PM
Waxing Crescent, 20% visible
Pressure 30.08 in
Visibility 10.0 miles
Clouds Scattered Clouds 9000 ft
Windchill 47 °F
Dew Point 42 °F
Humidity 82%
Rainfall 0.00 in
Snow Depth Not available.
UV 0 out of 12
Pollen 8.80 out of 12
Air Quality Not available.
Flu Activity Not available.
METAR KJAC 300855Z AUTO 31003KT 10SM SCT090 09/07 A3008 RMK AO1 57007

More Conditions Fewer Conditions

Pressure 30.08 in
Visibility 10.0 miles
Clouds Scattered Clouds 9000 ft
Windchill 47 °F
Dew Point 42 °F
Humidity 82%
Rainfall 0.00 in
Snow Depth Not available.
UV 0 out of 12
Pollen 8.80 out of 12
Air Quality Not available.
Flu Activity Not available.
METAR KJAC 300855Z AUTO 31003KT 10SM SCT090 09/07 A3008 RMK AO1 57007

More Conditions Fewer Conditions

10-Day Weather Forecast

Almanac

Astronomy

Aug. 30, 2014 Rise Set
Actual Time 6:44 AM MDT 8:01 PM MDT
Civil Twilight 6:14 AM MDT 8:31 PM MDT
Nautical Twilight 5:38 AM MDT 9:07 PM MDT
Astronomical Twilight 5:00 AM MDT 9:44 PM MDT
Moon 11:45 AM MDT 10:27 PM MDT
Length of Visible Light 14h 16m
Length of Day
13h 17m
Tomorrow will be 2m 53s shorter.
Waxing Crescent, 20% of the Moon is Illuminated
Today
Waxing Crescent
Sep 2
First Quarter
Sep 8
Full
Sep 15
Last Quarter
Sep 24
New

Today's Extremes

State Highs State Lows

Community

WunderPhotos

Upload Photos

1,748,475 photos uploaded!

Nearby

Snow Depth

Station Depth Elevation
Phillips Bench 0 in 8200 ft
Base Camp 0 in 7030 ft
Snake River Station 0 in 6920 ft
Granite Creek 0 in 6770 ft
Lewis Lake Divide 0 in 7850 ft

Earthquake Activity

City Distance Mag. Time & Date
No recent earthquake activity has been reported nearby.
Minimum magnitude displayed is 2.5.

Coastal Water Temperatures

Place Temperature
No Stations Reporting

Nearby Weather Stations